sensor_id;sensor_type;location;lat;lon;timestamp;temperature;humidity
9509;DHT22;4792;50.088;8.122;2022-11-23T00:01:29;5.90;99.90
9509;DHT22;4792;50.088;8.122;2022-11-23T00:04:01;5.80;99.90
9509;DHT22;4792;50.088;8.122;2022-11-23T00:06:29;5.80;99.90
9509;DHT22;4792;50.088;8.122;2022-11-23T00:08:58;5.70;99.90
9509;DHT22;4792;50.088;8.122;2022-11-23T00:11:26;5.80;99.90
9509;DHT22;4792;50.088;8.122;2022-11-23T00:13:55;5.90;99.90
9509;DHT22;4792;50.088;8.122;2022-11-23T00:16:25;5.90;99.90
9509;DHT22;4792;50.088;8.122;2022-11-23T00:18:57;5.90;99.90
9509;DHT22;4792;50.088;8.122;2022-11-23T00:21:27;5.80;99.90
9509;DHT22;4792;50.088;8.122;2022-11-23T00:23:56;5.80;99.90
9509;DHT22;4792;50.088;8.122;2022-11-23T00:26:24;5.80;99.90
9509;DHT22;4792;50.088;8.122;2022-11-23T00:28:52;5.90;99.90
9509;DHT22;4792;50.088;8.122;2022-11-23T00:31:21;6.00;99.90
9509;DHT22;4792;50.088;8.122;2022-11-23T00:33:51;6.00;99.90
9509;DHT22;4792;50.088;8.122;2022-11-23T00:36:23;5.90;99.90
9509;DHT22;4792;50.088;8.122;2022-11-23T00:38:51;5.90;99.90
9509;DHT22;4792;50.088;8.122;2022-11-23T00:41:22;5.80;99.90
9509;DHT22;4792;50.088;8.122;2022-11-23T00:43:50;5.80;99.90
9509;DHT22;4792;50.088;8.122;2022-11-23T00:46:20;5.80;99.90
9509;DHT22;4792;50.088;8.122;2022-11-23T00:48:50;5.80;99.90
9509;DHT22;4792;50.088;8.122;2022-11-23T00:51:22;5.70;99.90
9509;DHT22;4792;50.088;8.122;2022-11-23T00:53:50;5.70;99.90
9509;DHT22;4792;50.088;8.122;2022-11-23T00:56:19;5.70;99.90
9509;DHT22;4792;50.088;8.122;2022-11-23T00:58:48;5.70;99.90
9509;DHT22;4792;50.088;8.122;2022-11-23T01:01:18;5.70;99.90
9509;DHT22;4792;50.088;8.122;2022-11-23T01:03:47;5.70;99.90
9509;DHT22;4792;50.088;8.122;2022-11-23T01:06:18;5.70;99.90
9509;DHT22;4792;50.088;8.122;2022-11-23T01:08:49;5.70;99.90
9509;DHT22;4792;50.088;8.122;2022-11-23T01:11:22;5.70;99.90
9509;DHT22;4792;50.088;8.122;2022-11-23T01:13:50;5.70;99.90
9509;DHT22;4792;50.088;8.122;2022-11-23T01:16:21;5.70;99.90
9509;DHT22;4792;50.088;8.122;2022-11-23T01:18:51;5.70;99.90
9509;DHT22;4792;50.088;8.122;2022-11-23T01:21:21;5.70;99.90
9509;DHT22;4792;50.088;8.122;2022-11-23T01:23:50;5.70;99.90
9509;DHT22;4792;50.088;8.122;2022-11-23T01:26:19;5.80;99.90
9509;DHT22;4792;50.088;8.122;2022-11-23T01:28:48;5.80;99.90
9509;DHT22;4792;50.088;8.122;2022-11-23T01:31:17;5.80;99.90
9509;DHT22;4792;50.088;8.122;2022-11-23T01:33:46;5.80;99.90
9509;DHT22;4792;50.088;8.122;2022-11-23T01:36:16;5.80;99.90
9509;DHT22;4792;50.088;8.122;2022-11-23T01:38:46;5.90;99.90
9509;DHT22;4792;50.088;8.122;2022-11-23T01:41:18;6.00;99.90
9509;DHT22;4792;50.088;8.122;2022-11-23T01:43:47;5.90;99.90
9509;DHT22;4792;50.088;8.122;2022-11-23T01:46:15;5.90;99.90
9509;DHT22;4792;50.088;8.122;2022-11-23T01:48:46;6.00;99.90
9509;DHT22;4792;50.088;8.122;2022-11-23T01:51:19;5.90;99.90
9509;DHT22;4792;50.088;8.122;2022-11-23T01:53:50;5.90;99.90
9509;DHT22;4792;50.088;8.122;2022-11-23T01:56:26;5.90;99.90
9509;DHT22;4792;50.088;8.122;2022-11-23T01:58:57;5.90;99.90
9509;DHT22;4792;50.088;8.122;2022-11-23T02:01:27;5.90;99.90
9509;DHT22;4792;50.088;8.122;2022-11-23T02:04:01;5.90;99.90
9509;DHT22;4792;50.088;8.122;2022-11-23T02:06:33;5.80;99.90
9509;DHT22;4792;50.088;8.122;2022-11-23T02:09:01;5.80;99.90
9509;DHT22;4792;50.088;8.122;2022-11-23T02:11:34;5.90;99.90
9509;DHT22;4792;50.088;8.122;2022-11-23T02:14:03;5.80;99.90
9509;DHT22;4792;50.088;8.122;2022-11-23T02:16:32;5.80;99.90
9509;DHT22;4792;50.088;8.122;2022-11-23T02:19:00;5.90;99.90
9509;DHT22;4792;50.088;8.122;2022-11-23T02:21:29;5.90;99.90
9509;DHT22;4792;50.088;8.122;2022-11-23T02:24:02;5.80;99.90
9509;DHT22;4792;50.088;8.122;2022-11-23T02:26:33;5.90;99.90
9509;DHT22;4792;50.088;8.122;2022-11-23T02:29:06;5.90;99.90
9509;DHT22;4792;50.088;8.122;2022-11-23T02:31:35;5.90;99.90
9509;DHT22;4792;50.088;8.122;2022-11-23T02:34:03;5.80;99.90
9509;DHT22;4792;50.088;8.122;2022-11-23T02:36:38;5.90;99.90
9509;DHT22;4792;50.088;8.122;2022-11-23T02:39:11;5.90;99.90
9509;DHT22;4792;50.088;8.122;2022-11-23T02:41:43;5.90;99.90
9509;DHT22;4792;50.088;8.122;2022-11-23T02:44:24;5.90;99.90
9509;DHT22;4792;50.088;8.122;2022-11-23T02:46:56;5.90;99.90
9509;DHT22;4792;50.088;8.122;2022-11-23T02:49:25;5.90;99.90
9509;DHT22;4792;50.088;8.122;2022-11-23T02:51:53;5.90;99.90
9509;DHT22;4792;50.088;8.122;2022-11-23T02:54:21;5.90;99.90
9509;DHT22;4792;50.088;8.122;2022-11-23T02:56:50;5.90;99.90
9509;DHT22;4792;50.088;8.122;2022-11-23T02:59:19;5.90;99.90
9509;DHT22;4792;50.088;8.122;2022-11-23T03:01:48;6.00;99.90
9509;DHT22;4792;50.088;8.122;2022-11-23T03:04:16;6.00;99.90
9509;DHT22;4792;50.088;8.122;2022-11-23T03:06:52;5.90;99.90
9509;DHT22;4792;50.088;8.122;2022-11-23T03:09:21;5.90;99.90
9509;DHT22;4792;50.088;8.122;2022-11-23T03:11:50;6.00;99.90
9509;DHT22;4792;50.088;8.122;2022-11-23T03:14:19;6.00;99.90
9509;DHT22;4792;50.088;8.122;2022-11-23T03:16:47;6.00;99.90
9509;DHT22;4792;50.088;8.122;2022-11-23T03:19:16;6.00;99.90
9509;DHT22;4792;50.088;8.122;2022-11-23T03:21:44;6.00;99.90
9509;DHT22;4792;50.088;8.122;2022-11-23T03:24:12;5.90;99.90
9509;DHT22;4792;50.088;8.122;2022-11-23T03:26:40;6.00;99.90
9509;DHT22;4792;50.088;8.122;2022-11-23T03:29:09;5.90;99.90
9509;DHT22;4792;50.088;8.122;2022-11-23T03:31:37;5.90;99.90
9509;DHT22;4792;50.088;8.122;2022-11-23T03:34:05;6.00;99.90
9509;DHT22;4792;50.088;8.122;2022-11-23T03:36:34;6.00;99.90
9509;DHT22;4792;50.088;8.122;2022-11-23T03:39:02;6.00;99.90
9509;DHT22;4792;50.088;8.122;2022-11-23T03:41:30;5.90;99.90
9509;DHT22;4792;50.088;8.122;2022-11-23T03:43:58;5.90;99.90
9509;DHT22;4792;50.088;8.122;2022-11-23T03:46:27;5.90;99.90
9509;DHT22;4792;50.088;8.122;2022-11-23T03:48:56;6.00;99.90
9509;DHT22;4792;50.088;8.122;2022-11-23T03:51:24;6.00;99.90
9509;DHT22;4792;50.088;8.122;2022-11-23T03:53:52;6.00;99.90
9509;DHT22;4792;50.088;8.122;2022-11-23T03:56:20;6.00;99.90
9509;DHT22;4792;50.088;8.122;2022-11-23T03:58:48;6.00;99.90
9509;DHT22;4792;50.088;8.122;2022-11-23T04:01:16;6.00;99.90
9509;DHT22;4792;50.088;8.122;2022-11-23T04:03:46;6.00;99.90
9509;DHT22;4792;50.088;8.122;2022-11-23T04:06:14;6.00;99.90
9509;DHT22;4792;50.088;8.122;2022-11-23T04:08:42;6.00;99.90
9509;DHT22;4792;50.088;8.122;2022-11-23T04:11:11;6.00;99.90
9509;DHT22;4792;50.088;8.122;2022-11-23T04:13:39;6.00;99.90
9509;DHT22;4792;50.088;8.122;2022-11-23T04:16:07;6.00;99.90
9509;DHT22;4792;50.088;8.122;2022-11-23T04:18:35;6.00;99.90
9509;DHT22;4792;50.088;8.122;2022-11-23T04:21:05;6.00;99.90
9509;DHT22;4792;50.088;8.122;2022-11-23T04:23:33;6.00;99.90
9509;DHT22;4792;50.088;8.122;2022-11-23T04:26:01;6.00;99.90
9509;DHT22;4792;50.088;8.122;2022-11-23T04:28:29;6.00;99.90
9509;DHT22;4792;50.088;8.122;2022-11-23T04:30:57;6.00;99.90
9509;DHT22;4792;50.088;8.122;2022-11-23T04:33:25;6.00;99.90
9509;DHT22;4792;50.088;8.122;2022-11-23T04:35:54;6.10;99.90
9509;DHT22;4792;50.088;8.122;2022-11-23T04:38:23;6.00;99.90
9509;DHT22;4792;50.088;8.122;2022-11-23T04:40:51;6.00;99.90
9509;DHT22;4792;50.088;8.122;2022-11-23T04:43:19;6.00;99.90
9509;DHT22;4792;50.088;8.122;2022-11-23T04:45:47;6.00;99.90
9509;DHT22;4792;50.088;8.122;2022-11-23T04:48:16;6.00;99.90
9509;DHT22;4792;50.088;8.122;2022-11-23T04:50:44;6.00;99.90
9509;DHT22;4792;50.088;8.122;2022-11-23T04:53:12;6.00;99.90
9509;DHT22;4792;50.088;8.122;2022-11-23T04:55:42;6.20;99.90
9509;DHT22;4792;50.088;8.122;2022-11-23T04:58:10;6.20;99.90
9509;DHT22;4792;50.088;8.122;2022-11-23T05:00:38;6.20;99.90
9509;DHT22;4792;50.088;8.122;2022-11-23T05:03:06;6.10;99.90
9509;DHT22;4792;50.088;8.122;2022-11-23T05:05:36;6.10;99.90
9509;DHT22;4792;50.088;8.122;2022-11-23T05:08:06;6.20;99.90
9509;DHT22;4792;50.088;8.122;2022-11-23T05:10:35;6.30;99.90
9509;DHT22;4792;50.088;8.122;2022-11-23T05:13:04;6.30;99.90
9509;DHT22;4792;50.088;8.122;2022-11-23T05:15:32;6.30;99.90
9509;DHT22;4792;50.088;8.122;2022-11-23T05:18:01;6.20;99.90
9509;DHT22;4792;50.088;8.122;2022-11-23T05:20:29;6.20;99.90
9509;DHT22;4792;50.088;8.122;2022-11-23T05:22:58;6.20;99.90
9509;DHT22;4792;50.088;8.122;2022-11-23T05:25:26;6.20;99.90
9509;DHT22;4792;50.088;8.122;2022-11-23T05:27:55;6.20;99.90
9509;DHT22;4792;50.088;8.122;2022-11-23T05:30:31;6.20;99.90
9509;DHT22;4792;50.088;8.122;2022-11-23T05:32:59;6.20;99.90
9509;DHT22;4792;50.088;8.122;2022-11-23T05:35:29;6.30;99.90
9509;DHT22;4792;50.088;8.122;2022-11-23T05:37:57;6.30;99.90
9509;DHT22;4792;50.088;8.122;2022-11-23T05:40:26;6.20;99.90
9509;DHT22;4792;50.088;8.122;2022-11-23T05:42:54;6.20;99.90
9509;DHT22;4792;50.088;8.122;2022-11-23T05:45:23;6.10;99.90
9509;DHT22;4792;50.088;8.122;2022-11-23T05:47:54;6.20;99.90
9509;DHT22;4792;50.088;8.122;2022-11-23T05:50:26;6.20;99.90
9509;DHT22;4792;50.088;8.122;2022-11-23T05:52:55;6.30;99.90
9509;DHT22;4792;50.088;8.122;2022-11-23T05:55:23;6.40;99.90
9509;DHT22;4792;50.088;8.122;2022-11-23T05:57:52;6.30;99.90
9509;DHT22;4792;50.088;8.122;2022-11-23T06:00:20;6.30;99.90
9509;DHT22;4792;50.088;8.122;2022-11-23T06:02:48;6.30;99.90
9509;DHT22;4792;50.088;8.122;2022-11-23T06:05:18;6.20;99.90
9509;DHT22;4792;50.088;8.122;2022-11-23T06:07:51;6.30;99.90
9509;DHT22;4792;50.088;8.122;2022-11-23T06:10:19;6.20;99.90
9509;DHT22;4792;50.088;8.122;2022-11-23T06:12:47;6.10;99.90
9509;DHT22;4792;50.088;8.122;2022-11-23T06:15:17;6.20;99.90
9509;DHT22;4792;50.088;8.122;2022-11-23T06:17:45;6.20;99.90
9509;DHT22;4792;50.088;8.122;2022-11-23T06:20:14;6.20;99.90
9509;DHT22;4792;50.088;8.122;2022-11-23T06:22:43;6.30;99.90
9509;DHT22;4792;50.088;8.122;2022-11-23T06:25:18;6.30;99.90
9509;DHT22;4792;50.088;8.122;2022-11-23T06:27:54;6.30;99.90
9509;DHT22;4792;50.088;8.122;2022-11-23T06:30:22;6.20;99.90
9509;DHT22;4792;50.088;8.122;2022-11-23T06:32:51;6.30;99.90
9509;DHT22;4792;50.088;8.122;2022-11-23T06:35:19;6.30;99.90
9509;DHT22;4792;50.088;8.122;2022-11-23T06:37:49;6.30;99.90
9509;DHT22;4792;50.088;8.122;2022-11-23T06:40:17;6.30;99.90
9509;DHT22;4792;50.088;8.122;2022-11-23T06:42:45;6.30;99.90
9509;DHT22;4792;50.088;8.122;2022-11-23T06:45:14;6.20;99.90
9509;DHT22;4792;50.088;8.122;2022-11-23T06:47:42;6.20;99.90
9509;DHT22;4792;50.088;8.122;2022-11-23T06:50:10;6.20;99.90
9509;DHT22;4792;50.088;8.122;2022-11-23T06:52:40;6.20;99.90
9509;DHT22;4792;50.088;8.122;2022-11-23T06:55:09;6.30;99.90
9509;DHT22;4792;50.088;8.122;2022-11-23T06:57:37;6.20;99.90
9509;DHT22;4792;50.088;8.122;2022-11-23T07:00:07;6.20;99.90
9509;DHT22;4792;50.088;8.122;2022-11-23T07:02:37;6.20;99.90
9509;DHT22;4792;50.088;8.122;2022-11-23T07:05:06;6.30;99.90
9509;DHT22;4792;50.088;8.122;2022-11-23T07:07:34;6.30;99.90
9509;DHT22;4792;50.088;8.122;2022-11-23T07:10:03;6.30;99.90
9509;DHT22;4792;50.088;8.122;2022-11-23T07:12:34;6.30;99.90
9509;DHT22;4792;50.088;8.122;2022-11-23T07:15:03;6.30;99.90
9509;DHT22;4792;50.088;8.122;2022-11-23T07:17:31;6.30;99.90
9509;DHT22;4792;50.088;8.122;2022-11-23T07:19:59;6.30;99.90
9509;DHT22;4792;50.088;8.122;2022-11-23T07:22:27;6.30;99.90
9509;DHT22;4792;50.088;8.122;2022-11-23T07:24:55;6.20;99.90
9509;DHT22;4792;50.088;8.122;2022-11-23T07:27:24;6.20;99.90
9509;DHT22;4792;50.088;8.122;2022-11-23T07:29:53;6.30;99.90
9509;DHT22;4792;50.088;8.122;2022-11-23T07:32:21;6.40;99.90
9509;DHT22;4792;50.088;8.122;2022-11-23T07:34:49;6.40;99.90
9509;DHT22;4792;50.088;8.122;2022-11-23T07:37:17;6.40;99.90
9509;DHT22;4792;50.088;8.122;2022-11-23T07:39:45;6.40;99.90
9509;DHT22;4792;50.088;8.122;2022-11-23T07:42:29;6.40;99.90
9509;DHT22;4792;50.088;8.122;2022-11-23T07:45:07;6.30;99.90
9509;DHT22;4792;50.088;8.122;2022-11-23T07:47:36;6.30;99.90
9509;DHT22;4792;50.088;8.122;2022-11-23T07:50:05;6.30;99.90
9509;DHT22;4792;50.088;8.122;2022-11-23T07:52:35;6.20;99.90
9509;DHT22;4792;50.088;8.122;2022-11-23T07:55:04;6.20;99.90
9509;DHT22;4792;50.088;8.122;2022-11-23T07:57:32;6.20;99.90
9509;DHT22;4792;50.088;8.122;2022-11-23T08:00:01;6.20;99.90
9509;DHT22;4792;50.088;8.122;2022-11-23T08:02:31;6.20;99.90
9509;DHT22;4792;50.088;8.122;2022-11-23T08:04:59;6.20;99.90
9509;DHT22;4792;50.088;8.122;2022-11-23T08:07:27;6.20;99.90
9509;DHT22;4792;50.088;8.122;2022-11-23T08:09:55;6.10;99.90
9509;DHT22;4792;50.088;8.122;2022-11-23T08:12:23;6.10;99.90
9509;DHT22;4792;50.088;8.122;2022-11-23T08:14:51;6.10;99.90
9509;DHT22;4792;50.088;8.122;2022-11-23T08:17:19;6.10;99.90
9509;DHT22;4792;50.088;8.122;2022-11-23T08:19:49;6.20;99.90
9509;DHT22;4792;50.088;8.122;2022-11-23T08:22:17;6.20;99.90
9509;DHT22;4792;50.088;8.122;2022-11-23T08:24:45;6.30;99.90
9509;DHT22;4792;50.088;8.122;2022-11-23T08:27:14;6.40;99.90
9509;DHT22;4792;50.088;8.122;2022-11-23T08:29:42;6.40;99.90
9509;DHT22;4792;50.088;8.122;2022-11-23T08:32:11;6.40;99.90
9509;DHT22;4792;50.088;8.122;2022-11-23T08:34:41;6.40;99.90
9509;DHT22;4792;50.088;8.122;2022-11-23T08:37:12;6.50;99.90
9509;DHT22;4792;50.088;8.122;2022-11-23T08:39:40;6.50;99.90
9509;DHT22;4792;50.088;8.122;2022-11-23T08:42:08;6.60;99.90
9509;DHT22;4792;50.088;8.122;2022-11-23T08:44:37;6.70;99.90
9509;DHT22;4792;50.088;8.122;2022-11-23T08:47:05;6.70;99.90
9509;DHT22;4792;50.088;8.122;2022-11-23T08:49:33;6.70;99.90
9509;DHT22;4792;50.088;8.122;2022-11-23T08:52:01;6.70;99.90
9509;DHT22;4792;50.088;8.122;2022-11-23T08:54:32;6.70;99.90
9509;DHT22;4792;50.088;8.122;2022-11-23T08:57:00;6.80;99.90
9509;DHT22;4792;50.088;8.122;2022-11-23T08:59:29;6.70;99.90
9509;DHT22;4792;50.088;8.122;2022-11-23T09:01:57;6.80;99.90
9509;DHT22;4792;50.088;8.122;2022-11-23T09:04:25;6.90;99.90
9509;DHT22;4792;50.088;8.122;2022-11-23T09:06:56;6.90;99.90
9509;DHT22;4792;50.088;8.122;2022-11-23T09:09:24;6.90;99.90
9509;DHT22;4792;50.088;8.122;2022-11-23T09:11:54;6.90;99.90
9509;DHT22;4792;50.088;8.122;2022-11-23T09:14:22;6.90;99.90
9509;DHT22;4792;50.088;8.122;2022-11-23T09:16:50;6.90;99.90
9509;DHT22;4792;50.088;8.122;2022-11-23T09:19:19;6.90;99.90
9509;DHT22;4792;50.088;8.122;2022-11-23T09:21:48;7.00;99.90
9509;DHT22;4792;50.088;8.122;2022-11-23T09:24:16;7.00;99.90
9509;DHT22;4792;50.088;8.122;2022-11-23T09:26:44;7.00;99.90
9509;DHT22;4792;50.088;8.122;2022-11-23T09:29:14;7.00;99.90
9509;DHT22;4792;50.088;8.122;2022-11-23T09:31:42;7.00;99.90
9509;DHT22;4792;50.088;8.122;2022-11-23T09:34:11;6.90;99.90
9509;DHT22;4792;50.088;8.122;2022-11-23T09:36:39;7.00;99.90
9509;DHT22;4792;50.088;8.122;2022-11-23T09:39:09;6.80;99.90
9509;DHT22;4792;50.088;8.122;2022-11-23T09:44:56;6.80;99.90
9509;DHT22;4792;50.088;8.122;2022-11-23T09:47:39;6.80;99.90
9509;DHT22;4792;50.088;8.122;2022-11-23T09:50:16;6.70;99.90
9509;DHT22;4792;50.088;8.122;2022-11-23T09:52:47;6.60;99.90
9509;DHT22;4792;50.088;8.122;2022-11-23T09:55:23;6.70;99.90
9509;DHT22;4792;50.088;8.122;2022-11-23T09:57:57;6.80;99.90
9509;DHT22;4792;50.088;8.122;2022-11-23T10:00:32;6.70;99.90
9509;DHT22;4792;50.088;8.122;2022-11-23T10:03:02;6.80;99.90
9509;DHT22;4792;50.088;8.122;2022-11-23T10:05:34;6.70;99.90
9509;DHT22;4792;50.088;8.122;2022-11-23T10:08:13;6.70;99.90
9509;DHT22;4792;50.088;8.122;2022-11-23T10:10:51;6.80;99.90
9509;DHT22;4792;50.088;8.122;2022-11-23T10:13:33;6.90;99.90
9509;DHT22;4792;50.088;8.122;2022-11-23T10:16:13;6.90;99.90
9509;DHT22;4792;50.088;8.122;2022-11-23T10:18:49;7.00;99.90
9509;DHT22;4792;50.088;8.122;2022-11-23T10:21:28;7.00;99.90
9509;DHT22;4792;50.088;8.122;2022-11-23T10:24:09;7.00;99.90
9509;DHT22;4792;50.088;8.122;2022-11-23T10:26:41;7.10;99.90
9509;DHT22;4792;50.088;8.122;2022-11-23T10:29:13;7.20;99.90
9509;DHT22;4792;50.088;8.122;2022-11-23T10:31:46;7.30;99.90
9509;DHT22;4792;50.088;8.122;2022-11-23T10:34:33;7.50;99.90
9509;DHT22;4792;50.088;8.122;2022-11-23T10:37:09;7.90;99.90
9509;DHT22;4792;50.088;8.122;2022-11-23T10:39:38;8.40;99.90
9509;DHT22;4792;50.088;8.122;2022-11-23T10:42:17;8.40;99.90
9509;DHT22;4792;50.088;8.122;2022-11-23T10:44:46;8.20;99.90
9509;DHT22;4792;50.088;8.122;2022-11-23T10:47:36;8.20;99.90
9509;DHT22;4792;50.088;8.122;2022-11-23T10:50:26;8.20;99.90
9509;DHT22;4792;50.088;8.122;2022-11-23T10:52:58;8.20;99.90
9509;DHT22;4792;50.088;8.122;2022-11-23T10:55:29;8.20;99.90
9509;DHT22;4792;50.088;8.122;2022-11-23T10:57:58;7.90;99.90
9509;DHT22;4792;50.088;8.122;2022-11-23T11:00:27;7.80;99.90
9509;DHT22;4792;50.088;8.122;2022-11-23T11:02:59;7.80;99.90
9509;DHT22;4792;50.088;8.122;2022-11-23T11:05:33;7.70;99.90
9509;DHT22;4792;50.088;8.122;2022-11-23T11:08:24;7.60;99.90
9509;DHT22;4792;50.088;8.122;2022-11-23T11:10:57;7.80;99.90
9509;DHT22;4792;50.088;8.122;2022-11-23T11:13:28;8.10;99.90
9509;DHT22;4792;50.088;8.122;2022-11-23T11:15:59;8.40;99.90
9509;DHT22;4792;50.088;8.122;2022-11-23T11:18:31;8.50;99.90
9509;DHT22;4792;50.088;8.122;2022-11-23T11:21:03;8.70;99.90
9509;DHT22;4792;50.088;8.122;2022-11-23T11:23:33;8.70;99.90
9509;DHT22;4792;50.088;8.122;2022-11-23T11:26:15;8.50;99.90
9509;DHT22;4792;50.088;8.122;2022-11-23T11:28:47;8.40;99.90
9509;DHT22;4792;50.088;8.122;2022-11-23T11:31:42;8.40;99.90
9509;DHT22;4792;50.088;8.122;2022-11-23T11:34:19;8.30;99.90
9509;DHT22;4792;50.088;8.122;2022-11-23T11:36:53;8.50;99.90
9509;DHT22;4792;50.088;8.122;2022-11-23T11:39:28;8.70;99.90
9509;DHT22;4792;50.088;8.122;2022-11-23T11:42:01;9.60;99.90
9509;DHT22;4792;50.088;8.122;2022-11-23T11:44:32;10.40;99.90
9509;DHT22;4792;50.088;8.122;2022-11-23T11:47:15;11.10;99.90
9509;DHT22;4792;50.088;8.122;2022-11-23T11:49:49;11.40;99.90
9509;DHT22;4792;50.088;8.122;2022-11-23T11:52:21;11.50;99.90
9509;DHT22;4792;50.088;8.122;2022-11-23T11:54:54;11.90;99.90
9509;DHT22;4792;50.088;8.122;2022-11-23T11:57:26;11.70;99.90
9509;DHT22;4792;50.088;8.122;2022-11-23T11:59:56;11.40;99.90
9509;DHT22;4792;50.088;8.122;2022-11-23T12:02:26;11.40;99.90
9509;DHT22;4792;50.088;8.122;2022-11-23T12:05:06;11.50;99.90
9509;DHT22;4792;50.088;8.122;2022-11-23T12:07:43;11.80;99.90
9509;DHT22;4792;50.088;8.122;2022-11-23T12:10:17;12.50;99.90
9509;DHT22;4792;50.088;8.122;2022-11-23T12:12:46;12.60;99.90
9509;DHT22;4792;50.088;8.122;2022-11-23T12:15:20;12.80;99.90
9509;DHT22;4792;50.088;8.122;2022-11-23T12:18:33;12.70;99.90
9509;DHT22;4792;50.088;8.122;2022-11-23T12:24:03;13.00;99.90
9509;DHT22;4792;50.088;8.122;2022-11-23T12:26:44;12.80;99.90
9509;DHT22;4792;50.088;8.122;2022-11-23T12:29:45;13.10;99.90
9509;DHT22;4792;50.088;8.122;2022-11-23T12:32:24;13.20;99.90
9509;DHT22;4792;50.088;8.122;2022-11-23T12:38:02;13.50;99.90
9509;DHT22;4792;50.088;8.122;2022-11-23T12:40:49;13.40;99.90
9509;DHT22;4792;50.088;8.122;2022-11-23T12:43:27;13.50;99.90
9509;DHT22;4792;50.088;8.122;2022-11-23T12:46:13;13.60;99.90
9509;DHT22;4792;50.088;8.122;2022-11-23T12:48:55;13.70;99.90
9509;DHT22;4792;50.088;8.122;2022-11-23T12:51:35;13.90;99.90
9509;DHT22;4792;50.088;8.122;2022-11-23T12:54:15;13.40;99.90
9509;DHT22;4792;50.088;8.122;2022-11-23T12:57:01;12.80;99.90
9509;DHT22;4792;50.088;8.122;2022-11-23T12:59:41;12.10;99.90
9509;DHT22;4792;50.088;8.122;2022-11-23T13:02:23;12.00;99.90
9509;DHT22;4792;50.088;8.122;2022-11-23T13:05:20;11.90;99.90
9509;DHT22;4792;50.088;8.122;2022-11-23T13:08:12;12.00;99.90
9509;DHT22;4792;50.088;8.122;2022-11-23T13:10:52;11.90;99.90
9509;DHT22;4792;50.088;8.122;2022-11-23T13:13:47;12.70;99.90
9509;DHT22;4792;50.088;8.122;2022-11-23T13:19:34;13.50;99.90
9509;DHT22;4792;50.088;8.122;2022-11-23T13:22:10;13.70;99.90
9509;DHT22;4792;50.088;8.122;2022-11-23T13:25:03;13.50;99.90
9509;DHT22;4792;50.088;8.122;2022-11-23T13:27:44;13.40;99.90
9509;DHT22;4792;50.088;8.122;2022-11-23T13:30:24;13.00;99.90
9509;DHT22;4792;50.088;8.122;2022-11-23T13:33:28;13.10;99.90
9509;DHT22;4792;50.088;8.122;2022-11-23T13:36:04;13.30;99.90
9509;DHT22;4792;50.088;8.122;2022-11-23T13:38:42;13.00;99.90
9509;DHT22;4792;50.088;8.122;2022-11-23T13:44:22;12.80;99.90
9509;DHT22;4792;50.088;8.122;2022-11-23T13:47:17;12.90;99.90
9509;DHT22;4792;50.088;8.122;2022-11-23T13:49:47;13.10;99.90
9509;DHT22;4792;50.088;8.122;2022-11-23T13:52:26;13.40;99.90
9509;DHT22;4792;50.088;8.122;2022-11-23T13:54:59;13.40;99.90
9509;DHT22;4792;50.088;8.122;2022-11-23T13:57:35;13.30;99.90
9509;DHT22;4792;50.088;8.122;2022-11-23T14:00:44;13.40;99.90
9509;DHT22;4792;50.088;8.122;2022-11-23T14:03:50;13.40;99.90
9509;DHT22;4792;50.088;8.122;2022-11-23T14:06:43;13.10;99.90
9509;DHT22;4792;50.088;8.122;2022-11-23T14:09:17;12.40;99.90
9509;DHT22;4792;50.088;8.122;2022-11-23T14:11:55;12.30;99.90
9509;DHT22;4792;50.088;8.122;2022-11-23T14:14:29;12.20;99.90
9509;DHT22;4792;50.088;8.122;2022-11-23T14:20:19;11.70;99.90
9509;DHT22;4792;50.088;8.122;2022-11-23T14:23:04;11.80;99.90
9509;DHT22;4792;50.088;8.122;2022-11-23T14:25:39;11.60;99.90
9509;DHT22;4792;50.088;8.122;2022-11-23T14:28:22;11.30;99.90
9509;DHT22;4792;50.088;8.122;2022-11-23T14:31:05;10.90;99.90
9509;DHT22;4792;50.088;8.122;2022-11-23T14:33:40;10.60;99.90
9509;DHT22;4792;50.088;8.122;2022-11-23T14:36:22;10.20;99.90
9509;DHT22;4792;50.088;8.122;2022-11-23T14:39:31;9.80;99.90
9509;DHT22;4792;50.088;8.122;2022-11-23T14:42:10;9.80;99.90
9509;DHT22;4792;50.088;8.122;2022-11-23T14:44:40;9.50;99.90
9509;DHT22;4792;50.088;8.122;2022-11-23T14:47:10;9.40;99.90
9509;DHT22;4792;50.088;8.122;2022-11-23T14:49:48;9.10;99.90
9509;DHT22;4792;50.088;8.122;2022-11-23T14:52:21;8.90;99.90
9509;DHT22;4792;50.088;8.122;2022-11-23T14:54:50;8.60;99.90
9509;DHT22;4792;50.088;8.122;2022-11-23T14:57:21;8.50;99.90
9509;DHT22;4792;50.088;8.122;2022-11-23T14:59:53;8.40;99.90
9509;DHT22;4792;50.088;8.122;2022-11-23T15:02:24;8.30;99.90
9509;DHT22;4792;50.088;8.122;2022-11-23T15:05:01;8.20;99.90
9509;DHT22;4792;50.088;8.122;2022-11-23T15:07:41;8.20;99.90
9509;DHT22;4792;50.088;8.122;2022-11-23T15:10:22;8.10;99.90
9509;DHT22;4792;50.088;8.122;2022-11-23T15:12:52;8.10;99.90
9509;DHT22;4792;50.088;8.122;2022-11-23T15:15:22;8.00;99.90
9509;DHT22;4792;50.088;8.122;2022-11-23T15:17:51;8.00;99.90
9509;DHT22;4792;50.088;8.122;2022-11-23T15:20:20;8.00;99.90
9509;DHT22;4792;50.088;8.122;2022-11-23T15:22:50;8.00;99.90
9509;DHT22;4792;50.088;8.122;2022-11-23T15:25:18;8.00;99.90
9509;DHT22;4792;50.088;8.122;2022-11-23T15:27:47;8.00;99.90
9509;DHT22;4792;50.088;8.122;2022-11-23T15:30:17;8.00;99.90
9509;DHT22;4792;50.088;8.122;2022-11-23T15:32:57;8.00;99.90
9509;DHT22;4792;50.088;8.122;2022-11-23T15:35:29;8.00;99.90
9509;DHT22;4792;50.088;8.122;2022-11-23T15:38:00;8.00;99.90
9509;DHT22;4792;50.088;8.122;2022-11-23T15:40:31;8.00;99.90
9509;DHT22;4792;50.088;8.122;2022-11-23T15:43:00;8.00;99.90
9509;DHT22;4792;50.088;8.122;2022-11-23T15:45:56;8.00;99.90
9509;DHT22;4792;50.088;8.122;2022-11-23T15:48:27;8.00;99.90
9509;DHT22;4792;50.088;8.122;2022-11-23T15:50:58;8.00;99.90
9509;DHT22;4792;50.088;8.122;2022-11-23T15:53:29;8.00;99.90
9509;DHT22;4792;50.088;8.122;2022-11-23T15:56:00;8.00;99.90
9509;DHT22;4792;50.088;8.122;2022-11-23T15:58:30;8.00;99.90
9509;DHT22;4792;50.088;8.122;2022-11-23T16:01:04;8.00;99.90
9509;DHT22;4792;50.088;8.122;2022-11-23T16:03:40;7.90;99.90
9509;DHT22;4792;50.088;8.122;2022-11-23T16:06:15;7.90;99.90
9509;DHT22;4792;50.088;8.122;2022-11-23T16:08:45;7.90;99.90
9509;DHT22;4792;50.088;8.122;2022-11-23T16:11:30;7.90;99.90
9509;DHT22;4792;50.088;8.122;2022-11-23T16:14:15;7.90;99.90
9509;DHT22;4792;50.088;8.122;2022-11-23T16:16:45;7.90;99.90
9509;DHT22;4792;50.088;8.122;2022-11-23T16:19:26;7.90;99.90
9509;DHT22;4792;50.088;8.122;2022-11-23T16:21:57;7.90;99.90
9509;DHT22;4792;50.088;8.122;2022-11-23T16:24:31;7.90;99.90
9509;DHT22;4792;50.088;8.122;2022-11-23T16:27:00;7.90;99.90
9509;DHT22;4792;50.088;8.122;2022-11-23T16:29:39;7.80;99.90
9509;DHT22;4792;50.088;8.122;2022-11-23T16:32:24;7.90;99.90
9509;DHT22;4792;50.088;8.122;2022-11-23T16:34:53;7.90;99.90
9509;DHT22;4792;50.088;8.122;2022-11-23T16:37:22;7.80;99.90
9509;DHT22;4792;50.088;8.122;2022-11-23T16:39:53;7.80;99.90
9509;DHT22;4792;50.088;8.122;2022-11-23T16:42:21;7.80;99.90
9509;DHT22;4792;50.088;8.122;2022-11-23T16:44:49;7.70;99.90
9509;DHT22;4792;50.088;8.122;2022-11-23T16:47:23;7.70;99.90
9509;DHT22;4792;50.088;8.122;2022-11-23T16:49:52;7.60;99.90
9509;DHT22;4792;50.088;8.122;2022-11-23T16:52:21;7.60;99.90
9509;DHT22;4792;50.088;8.122;2022-11-23T16:54:49;7.50;99.90
9509;DHT22;4792;50.088;8.122;2022-11-23T16:57:26;7.60;99.90
9509;DHT22;4792;50.088;8.122;2022-11-23T16:59:55;7.50;99.90
9509;DHT22;4792;50.088;8.122;2022-11-23T17:02:24;7.50;99.90
9509;DHT22;4792;50.088;8.122;2022-11-23T17:04:52;7.30;99.90
9509;DHT22;4792;50.088;8.122;2022-11-23T17:07:21;7.20;99.90